Αρχική σελίδα
METAR-TAF:

METAR-TAF

Αεροδρόμια :

Fort McMurray, Αλμπέρτα, Καναδάς

γεωγραφικό πλάτος: 56-39N, γεωγραφικό μήκος: 111-13W, υψόμετρο: 369 μ

Παρών καιρός

Η αναφορά έγινε 41 λεπτά πριν, στις 15:00 UTC
Άνεμος 6 kt από Ν/ΝΔ
Θερμοκρασία 0°C
Υγρασία 69%
Πίεση 1021 hPa
Ορατότητα: 14.5 χλμ
Καθαρός ουρανός

METAR: CYMM 181500Z AUTO 21006KT 9SM CLR 00/M05 A3015 RMK SLP232

Χρόνος: 09:41 (15:41 UTC)

Πρόγνωση Καιρού

Η αναφορά έγινε 3 ώρες και 3 λεπτά πριν, στις 12:38 UTC
Η πρόγνωση ισχύει από τις 18 στις 13 UTC έως τις 19 στις 01 UTC
Άνεμος 8 kt από Δ/ΝΔ
Ορατότητα: 10 χλμ
Καθαρός ουρανός

TAF: CYMM 181238Z 1813/1901 24008KT P6SM SKC RMK FCST BASED ON AUTO OBS. NXT FCST BY 181900Z

Μετεωρολογικές αναφορές και προγνώσεις για περισσότερα από 4000 αεροδρόμια (δελτία METAR και TAF).

Οι διαθέσιμοι σταθμοί απεικονίζονται στο χάρτη με κίτρινες και κόκκινες κουκκίδες.

Μετακινήστε το ποντίκι πάνω από τις κουκκίδες για να δείτε το όνομα του σταθμού.

Στη συνέχεια, κάντε κλικ για να δείτε τις μετεωρολογικές αναφορές και τις προγνώσεις καιρού.

Για να αλλάξετε το χάρτη: κάντε κλικ στα πράσινα κουμπιά με τον μαύρο σταυρό για να ζουμάρετε, στο πράσινο κουμπί με την παύλα για να αφαιρέσετε το ζουμ ή στα πράσινα βέλη για να αντιπαραβάλλετε χάρτες.


METAR-TAF: